SiteLock Weer in Ekeren en de Haven van Antwerpen - Nearby METAR Reports

Nearby METAR Reports

 

EBAW - Airport Antwerp
Ververst: 19/06/2018 19:50
Meestal bewolkt
Meestal bewolkt
 Wind van ZW
Wind: ZW 9 km/h
Temperatuur: 20°C
Dauwpunt: 15°C
Vochtigheid: 73%
Barometer: 1024 hPa
Clouds: Meestal bewolkt
Visibility: 10 km
Cloud details: Gedeeltelijk bewolkt 671 m
Meestal bewolkt 1006 m
2018/06/19 17:50 EBAW 191750Z 23005KT 200V270 9999 SCT022 BKN033 20/15 Q1024 NOSIG
EBBR - Brussels National Airport
Ververst: 19/06/2018 19:50
Meestal bewolkt
Meestal bewolkt
 Wind van WZW
Wind: WZW 7 km/h
Temperatuur: 20°C
Dauwpunt: 15°C
Vochtigheid: 73%
Barometer: 1024 hPa
Clouds: Meestal bewolkt
Visibility: 10 km
Cloud details: Few Clouds 579 m
Meestal bewolkt 792 m
2018/06/19 17:50 EBBR 191750Z 25004KT 9999 FEW019 BKN026 20/15 Q1024 NOSIG
 
EBBL - Kleine Brogel Military Airport
Ververst: 19/06/2018 19:55
Zwaar bewolkt
Zwaar bewolkt
 Wind van ZW
Wind: ZW 11 km/h
Temperatuur: 20°C
Dauwpunt: 16°C
Vochtigheid: 78%
Barometer: 1024 hPa
Clouds: Zwaar bewolkt
Cloud details: Zwaar bewolkt 1006 m
2018/06/19 17:55 EBBL 191755Z AUTO 23006KT //// OVC033/// 20/16 Q1024 BLU
EBCI - Charleroi Airport
Ververst: 19/06/2018 19:50
Meestal bewolkt
Meestal bewolkt
 Wind van WZW
Wind: WZW 9 km/h
Temperatuur: 19°C
Dauwpunt: 16°C
Vochtigheid: 83%
Barometer: 1025 hPa
Clouds: Meestal bewolkt
Visibility: 10 km
Cloud details: Few Clouds 488 m
Meestal bewolkt 701 m
2018/06/19 17:50 EBCI 191750Z 24005KT 210V270 9999 FEW016 BKN023 19/16 Q1025 NOSIG
 
LERS - Reus Airport
Ververst: 19/06/2018 20:00
Helder
Helder
 Wind van Z
Wind: Z 11 km/h
Temperatuur: 25°C
Dauwpunt: 18°C
Vochtigheid: 65%
Barometer: 1019 hPa
Overzicht: Helder
Visibility: greater than 10 km
2018/06/19 18:00 LERS 191800Z 18006KT 130V240 CAVOK 25/18 Q1019
LIML - Milan Airport
Ververst: 19/06/2018 19:50
Helder
Helder
 Wind van ZZO
Wind: ZZO 9 km/h
Temperatuur: 29°C
Hitte-Index: 29°C
Dauwpunt: 15°C
Vochtigheid: 43%
Barometer: 1018 hPa
Overzicht: Helder
Visibility: greater than 10 km
2018/06/19 17:50 LIML 191750Z 15005KT CAVOK 29/15 Q1018 NOSIG
 
LPMA - Madeira Airport
Ververst: 19/06/2018 20:00
Meestal bewolkt
Meestal bewolkt
 Wind van ZW
Wind: ZW 9 km/h
Temperatuur: 21°C
Dauwpunt: 16°C
Vochtigheid: 73%
Barometer: 1018 hPa
Clouds: Meestal bewolkt
Visibility: 10 km
Cloud details: Few Clouds 457 m
Meestal bewolkt 914 m
2018/06/19 18:00 LPMA 191800Z 22005KT 9999 FEW015 BKN030 21/16 Q1018
LGKO - Kos Airport
Ververst: 19/06/2018 19:50
Few Clouds
Few Clouds
 Wind van WNW
Wind: WNW 7 km/h
Temperatuur: 24°C
Dauwpunt: 20°C
Vochtigheid: 78%
Barometer: 1010 hPa
Clouds: Few Clouds
Visibility: 10 km
Cloud details: Few Clouds 549 m
2018/06/19 17:50 LGKO 191750Z 30004KT 9999 FEW018 24/20 Q1010
 
LIRQ - Firenze Airport
Ververst: 19/06/2018 19:50
Helder
Helder
 Wind van NO
Wind: NO 17 km/h
Temperatuur: 28°C
Dauwpunt: 12°C
Vochtigheid: 37%
Barometer: 1017 hPa
Overzicht: Helder
Visibility: greater than 10 km
2018/06/19 17:50 LIRQ 191750Z 05009KT 020V080 CAVOK 28/12 Q1017
LIRP - Pisa Airport
Ververst: 19/06/2018 19:45
Few Clouds
Few Clouds
 Wind van NNW
Wind: NNW 19 km/h
Temperatuur: 28°C
Hitte-Index: 28°C
Dauwpunt: 14°C
Vochtigheid: 42%
Barometer: 1017 hPa
Clouds: Few Clouds
Visibility: 10 km
Cloud details: Few Clouds 2438 m
2018/06/19 17:45 LIRP 191745Z 33010KT 9999 FEW080 28/14 Q1017 NOSIG